Kapuskasing Airport
CYYU : now visible

Aeroporto :











RITROVATECI SU...

 
LOGIN :

Iscrizione | Disclaimer

   EN    FR    IT 

 









Sommario :    VFR   VFR Marginale   IFR   IFR Intensivo   IFR Molto Intensivo
Visibilità : 
Base nubi : 
>= 8 km
>= 3000ft
5 / 8 km
1000 / 3000 ft
1500m / 5 km
500 / 1000 ft
800 / 1500m
200 / 500 ft
< 800m
< 200 ft
Simboli :   Temporali  Nebbia  Neve Forte  Precipitazioni Forti  Vento > 20 kt






- Altitudine del aeroporto : 743 ft
- Codice IATA : YYU


CYYU - Kapuskasing

ULTIMO METAR :
  • 150500Z 32014G19KT 4SM -SN DRSN SCT014 OVC072 M16/M18 A2966 RMK SC4AC4 SLP066

METARs OBSOLETI :
  • 150400Z 33013G19KT 3SM -SN DRSN SCT013 OVC088 M15/M18 A2965 RMK SC4AC4 SLP065
  • 150300Z 33012G18KT 5SM -SN DRSN SCT016 OVC089 M15/M18 A2966 RMK SC4AC4 SLP067

TAF TAF CYYU
Valido dal 15 a 02 ore il 15 a 14 ore UTC


150138Z 1502/1514 34010G20KT 11/2SM -SN OVC012
TEMPO 1502/1508 6SM -SN OVC030
FM150800 33010G20KT 6SM -SN OVC030
TEMPO 1508/1514 3SM -SN OVC020 RMK NXT FCST BY 150800Z



MetMap, La meteo Aeronautica in un colpo d'occhio ! - Copyright ORBIFLY Dicembre 2007 - Disclaimer

ORBIFLY MET'MAP TEAM :

Programmazione e sviluppo : Alexandra Zaïnal
Concezione : Baudouin d'Aumeries
Aiuto per la programmazione : Marc-Olivier Méhu
Supporto tecnico e logistico : Manuel Goepfert
Aiuto per la traduzione : Arnaldo La Scala

Contatto : metmap@orbifly.com




FONTI E CREDITI :

   NOAA       Earth
Advisory